Time;durP1;ratioP1;P1;durP2;ratioP2;P2;SDS_P1;SDS_P2;PMS_P1;PMS_P2;Temp;Humidity;BMP_temperature;BMP_pressure;BME280_temperature;BME280_humidity;BME280_pressure;Samples;Min_cycle;Max_cycle;Signal;HPM_P1;HPM_P2
2023/01/01 00:01:10;;;;;;;;;;;12.40;99.90;;;;;;5056388;28;19912;-70
2023/01/01 00:03:36;;;;;;;;;;;12.40;99.90;;;;;;5056553;28;19918;-70
2023/01/01 00:06:09;;;;;;;;;;;12.40;99.90;;;;;;5056178;28;19999;-70
2023/01/01 00:08:36;;;;;;;;;;;12.30;99.90;;;;;;5057319;28;19962;-70
2023/01/01 00:11:02;;;;;;;;;;;12.30;99.90;;;;;;5056870;28;20320;-70
2023/01/01 00:13:28;;;;;;;;;;;12.20;99.90;;;;;;5074350;28;19919;-70
2023/01/01 00:15:54;;;;;;;;;;;12.20;99.90;;;;;;5039641;28;20015;-70
2023/01/01 00:18:21;;;;;;;;;;;12.30;99.90;;;;;;5074881;28;19913;-70
2023/01/01 00:20:47;;;;;;;;;;;12.30;99.90;;;;;;5074649;28;19912;-70
2023/01/01 00:23:16;;;;;;;;;;;12.30;99.90;;;;;;5074246;28;19958;-70
2023/01/01 00:25:43;;;;;;;;;;;12.20;99.90;;;;;;5074136;28;19912;-70
2023/01/01 00:28:09;;;;;;;;;;;12.10;99.90;;;;;;5036655;28;19953;-70
2023/01/01 00:30:37;;;;;;;;;;;12.20;99.90;;;;;;5054378;28;19944;-70
2023/01/01 00:33:09;;;;;;;;;;;12.30;99.90;;;;;;5054121;28;19944;-70
2023/01/01 00:35:34;;;;;;;;;;;12.30;99.90;;;;;;5054255;28;19917;-70
2023/01/01 00:38:00;;;;;;;;;;;12.40;99.90;;;;;;5072759;28;19920;-70
2023/01/01 00:40:29;;;;;;;;;;;12.50;99.90;;;;;;5074274;28;19920;-70
2023/01/01 00:42:55;;;;;;;;;;;12.50;99.90;;;;;;5074101;28;20355;-70
2023/01/01 00:45:21;;;;;;;;;;;12.50;99.90;;;;;;5074271;28;19912;-70
2023/01/01 00:47:48;;;;;;;;;;;12.60;99.90;;;;;;5072882;28;19912;-70
2023/01/01 00:50:16;;;;;;;;;;;12.50;99.90;;;;;;5073485;28;19954;-70
2023/01/01 00:52:41;;;;;;;;;;;12.50;99.90;;;;;;5056059;28;19924;-70
2023/01/01 00:55:07;;;;;;;;;;;12.50;99.90;;;;;;5073545;28;19912;-70
2023/01/01 00:57:34;;;;;;;;;;;12.50;99.90;;;;;;5073999;28;19921;-70
2023/01/01 00:59:59;;;;;;;;;;;12.50;99.90;;;;;;5055914;28;19943;-70
2023/01/01 01:02:26;;;;;;;;;;;12.50;99.90;;;;;;5073817;28;20424;-70
2023/01/01 01:04:51;;;;;;;;;;;12.70;99.90;;;;;;5074379;28;19916;-70
2023/01/01 01:07:17;;;;;;;;;;;12.70;99.90;;;;;;5074460;28;19966;-70
2023/01/01 01:09:43;;;;;;;;;;;12.70;99.90;;;;;;5073411;28;19919;-70
2023/01/01 01:12:10;;;;;;;;;;;12.60;99.90;;;;;;5074453;28;19913;-71
2023/01/01 01:14:35;;;;;;;;;;;12.70;99.90;;;;;;5074842;28;19955;-70
2023/01/01 01:17:02;;;;;;;;;;;12.60;99.90;;;;;;5072807;28;19968;-70
2023/01/01 01:19:27;;;;;;;;;;;12.70;99.90;;;;;;5055525;28;19917;-70
2023/01/01 01:21:53;;;;;;;;;;;12.60;99.90;;;;;;5074201;28;19912;-71
2023/01/01 01:24:19;;;;;;;;;;;12.70;99.90;;;;;;5057466;28;19938;-70
2023/01/01 01:26:45;;;;;;;;;;;12.70;99.90;;;;;;5073578;28;19958;-70
2023/01/01 01:29:10;;;;;;;;;;;12.70;99.90;;;;;;5055265;28;19958;-70
2023/01/01 01:31:36;;;;;;;;;;;12.70;99.90;;;;;;5055788;28;19939;-70
2023/01/01 01:34:02;;;;;;;;;;;12.80;99.90;;;;;;5055430;28;19917;-70
2023/01/01 01:36:28;;;;;;;;;;;12.70;99.90;;;;;;5055977;28;19924;-70
2023/01/01 01:38:55;;;;;;;;;;;12.80;99.90;;;;;;5055846;28;19924;-70
2023/01/01 01:41:22;;;;;;;;;;;12.80;99.90;;;;;;5073242;28;20279;-70
2023/01/01 01:44:27;;;;;;;;;;;12.70;99.90;;;;;;5072858;28;19912;-70
2023/01/01 01:46:52;;;;;;;;;;;12.70;99.90;;;;;;5072895;28;19920;-70
2023/01/01 01:49:36;;;;;;;;;;;12.70;99.90;;;;;;5048660;28;19996;-70
2023/01/01 01:52:04;;;;;;;;;;;12.70;99.90;;;;;;5069213;28;19947;-70
2023/01/01 01:54:30;;;;;;;;;;;12.60;99.90;;;;;;5054920;28;19917;-70
2023/01/01 01:57:02;;;;;;;;;;;12.60;99.90;;;;;;5072326;28;19927;-69
2023/01/01 01:59:30;;;;;;;;;;;12.60;99.90;;;;;;5072804;28;20272;-68
2023/01/01 02:01:57;;;;;;;;;;;12.70;99.90;;;;;;5054519;28;20319;-70
2023/01/01 02:04:24;;;;;;;;;;;12.70;99.90;;;;;;5054311;28;19919;-69
2023/01/01 02:06:51;;;;;;;;;;;12.60;99.90;;;;;;5055222;28;19993;-69
2023/01/01 02:09:20;;;;;;;;;;;12.60;99.90;;;;;;5072347;28;20510;-69
2023/01/01 02:11:46;;;;;;;;;;;12.60;99.90;;;;;;5072706;28;20003;-69
2023/01/01 02:14:13;;;;;;;;;;;12.60;99.90;;;;;;5072376;28;19995;-69
2023/01/01 02:16:38;;;;;;;;;;;12.50;99.90;;;;;;5072118;28;19920;-69
2023/01/01 02:19:19;;;;;;;;;;;12.50;99.90;;;;;;5072300;28;19999;-69
2023/01/01 02:21:53;;;;;;;;;;;12.40;99.90;;;;;;5074053;28;20391;-69
2023/01/01 02:24:34;;;;;;;;;;;12.50;99.90;;;;;;5072596;28;19912;-69
2023/01/01 02:27:03;;;;;;;;;;;12.50;99.90;;;;;;5054209;28;19913;-69
2023/01/01 02:29:42;;;;;;;;;;;12.40;99.90;;;;;;5054206;28;19919;-69
2023/01/01 02:32:23;;;;;;;;;;;12.20;99.90;;;;;;5072140;28;19912;-69
2023/01/01 02:37:58;;;;;;;;;;;12.00;99.90;;;;;;5055278;28;19978;-69
2023/01/01 02:40:26;;;;;;;;;;;12.00;99.90;;;;;;5073436;28;20007;-69
2023/01/01 02:42:52;;;;;;;;;;;11.80;99.90;;;;;;5072751;28;20344;-69
2023/01/01 02:45:18;;;;;;;;;;;11.80;99.90;;;;;;5071893;28;19912;-69
2023/01/01 02:47:44;;;;;;;;;;;11.70;99.90;;;;;;5054403;28;20248;-69
2023/01/01 02:50:14;;;;;;;;;;;11.80;99.90;;;;;;5071962;28;20007;-69
2023/01/01 02:52:51;;;;;;;;;;;11.90;99.90;;;;;;5072025;28;20449;-69
2023/01/01 02:55:36;;;;;;;;;;;11.90;99.90;;;;;;5072139;28;20015;-69
2023/01/01 03:00:17;;;;;;;;;;;11.90;99.90;;;;;;5054114;28;20360;-69
2023/01/01 03:00:57;;;;;;;;;;;11.90;99.90;;;;;;5072213;28;19923;-69
2023/01/01 03:03:49;;;;;;;;;;;12.00;99.90;;;;;;5072420;28;19919;-69
2023/01/01 03:06:33;;;;;;;;;;;11.90;99.90;;;;;;5049750;28;19948;-69
2023/01/01 03:09:06;;;;;;;;;;;11.70;99.90;;;;;;5070723;28;19965;-69
2023/01/01 03:11:44;;;;;;;;;;;11.60;99.90;;;;;;5053999;28;20332;-69
2023/01/01 03:14:18;;;;;;;;;;;11.50;99.90;;;;;;5055787;28;19924;-69
2023/01/01 03:16:46;;;;;;;;;;;11.50;99.90;;;;;;5057513;28;20344;-69
2023/01/01 03:19:48;;;;;;;;;;;11.50;99.90;;;;;;5075682;28;19948;-69
2023/01/01 03:22:16;;;;;;;;;;;11.40;99.90;;;;;;4994113;28;20381;-69
2023/01/01 03:24:53;;;;;;;;;;;11.30;99.90;;;;;;5042120;28;19913;-69
2023/01/01 03:27:30;;;;;;;;;;;11.30;99.90;;;;;;5057656;28;20248;-69
2023/01/01 03:29:58;;;;;;;;;;;11.30;99.90;;;;;;5075048;28;20318;-69
2023/01/01 03:32:58;;;;;;;;;;;11.40;99.90;;;;;;5058055;28;19916;-69
2023/01/01 03:35:14;;;;;;;;;;;11.40;99.90;;;;;;5075417;28;19917;-69
2023/01/01 03:37:44;;;;;;;;;;;11.40;99.90;;;;;;5057928;28;20020;-69
2023/01/01 03:40:13;;;;;;;;;;;11.40;99.90;;;;;;5075089;28;19952;-69
2023/01/01 03:42:44;;;;;;;;;;;11.40;99.90;;;;;;5056826;28;20329;-69
2023/01/01 03:45:15;;;;;;;;;;;11.40;99.90;;;;;;5055135;28;19939;-69
2023/01/01 03:47:42;;;;;;;;;;;11.50;99.90;;;;;;5068221;28;19912;-70
2023/01/01 03:50:08;;;;;;;;;;;11.40;99.90;;;;;;5057110;28;19919;-70
2023/01/01 03:52:35;;;;;;;;;;;11.50;99.90;;;;;;5057366;28;19912;-70
2023/01/01 03:55:14;;;;;;;;;;;11.50;99.90;;;;;;5074815;28;20350;-70
2023/01/01 03:57:50;;;;;;;;;;;11.50;99.90;;;;;;5074747;28;19962;-70
2023/01/01 04:00:18;;;;;;;;;;;11.30;99.90;;;;;;5056977;28;19917;-70
2023/01/01 04:02:48;;;;;;;;;;;11.20;99.90;;;;;;5076290;28;19912;-70
2023/01/01 04:05:15;;;;;;;;;;;11.30;99.90;;;;;;5057068;28;19912;-70
2023/01/01 04:07:40;;;;;;;;;;;11.20;99.90;;;;;;5074416;28;19920;-70
2023/01/01 04:10:16;;;;;;;;;;;11.40;99.90;;;;;;5074755;28;19920;-70
2023/01/01 04:12:48;;;;;;;;;;;11.50;99.90;;;;;;5075542;28;19939;-70
2023/01/01 04:15:15;;;;;;;;;;;11.40;99.90;;;;;;5073795;28;19923;-70
2023/01/01 04:17:42;;;;;;;;;;;11.60;99.90;;;;;;5073286;28;19920;-69
2023/01/01 04:20:08;;;;;;;;;;;11.60;99.90;;;;;;5072754;28;19919;-70
2023/01/01 04:22:36;;;;;;;;;;;11.50;99.90;;;;;;5070711;28;19919;-70
2023/01/01 04:25:03;;;;;;;;;;;11.60;99.90;;;;;;5073187;28;20364;-70
2023/01/01 04:27:29;;;;;;;;;;;11.50;99.90;;;;;;5074201;28;19920;-70
2023/01/01 04:29:58;;;;;;;;;;;11.40;99.90;;;;;;5073702;28;19912;-70
2023/01/01 04:32:24;;;;;;;;;;;11.40;99.90;;;;;;5056704;28;20309;-70
2023/01/01 04:34:49;;;;;;;;;;;11.20;99.90;;;;;;5073592;28;19913;-70
2023/01/01 04:37:15;;;;;;;;;;;11.20;99.90;;;;;;5074618;28;19921;-70
2023/01/01 04:39:41;;;;;;;;;;;11.20;99.90;;;;;;5076096;28;20394;-70
2023/01/01 04:42:07;;;;;;;;;;;11.10;99.90;;;;;;5074520;28;19919;-70
2023/01/01 04:44:33;;;;;;;;;;;11.10;99.90;;;;;;5073900;28;19995;-70
2023/01/01 04:46:58;;;;;;;;;;;11.10;99.90;;;;;;5073452;28;19912;-70
2023/01/01 04:49:24;;;;;;;;;;;11.10;99.90;;;;;;5073796;28;19913;-70
2023/01/01 04:51:50;;;;;;;;;;;11.20;99.90;;;;;;5073587;28;19916;-70
2023/01/01 04:54:19;;;;;;;;;;;11.20;99.90;;;;;;5073868;28;20356;-70
2023/01/01 04:56:44;;;;;;;;;;;11.10;99.90;;;;;;5039177;28;20026;-70
2023/01/01 04:59:10;;;;;;;;;;;11.10;99.90;;;;;;5073851;28;19919;-70
2023/01/01 05:01:37;;;;;;;;;;;11.00;99.90;;;;;;5073514;28;19917;-70
2023/01/01 05:04:03;;;;;;;;;;;11.10;99.90;;;;;;5073086;28;19913;-70
2023/01/01 05:06:28;;;;;;;;;;;11.10;99.90;;;;;;5073432;28;19920;-70
2023/01/01 05:08:55;;;;;;;;;;;11.10;99.90;;;;;;5073339;28;19912;-70
2023/01/01 05:11:24;;;;;;;;;;;11.00;99.90;;;;;;5072983;28;19935;-70
2023/01/01 05:13:51;;;;;;;;;;;11.00;99.90;;;;;;5055265;28;20364;-70
2023/01/01 05:16:19;;;;;;;;;;;10.90;99.90;;;;;;5072952;28;20487;-70
2023/01/01 05:18:46;;;;;;;;;;;10.90;99.90;;;;;;5056070;28;20314;-70
2023/01/01 05:21:12;;;;;;;;;;;10.90;99.90;;;;;;5073075;28;19913;-70
2023/01/01 05:23:38;;;;;;;;;;;11.00;99.90;;;;;;5072747;28;19912;-70
2023/01/01 05:26:08;;;;;;;;;;;10.90;99.90;;;;;;5072410;28;20007;-70
2023/01/01 05:28:34;;;;;;;;;;;10.90;99.90;;;;;;5073112;28;19913;-70
2023/01/01 05:31:03;;;;;;;;;;;10.80;99.90;;;;;;5071198;28;20011;-70
2023/01/01 05:33:32;;;;;;;;;;;10.90;99.90;;;;;;5073299;28;20276;-70
2023/01/01 05:35:58;;;;;;;;;;;11.00;99.90;;;;;;5053882;28;19920;-70
2023/01/01 05:38:24;;;;;;;;;;;10.90;99.90;;;;;;5055568;28;19913;-70
2023/01/01 05:40:50;;;;;;;;;;;10.70;99.90;;;;;;5072462;28;19965;-70
2023/01/01 05:43:16;;;;;;;;;;;10.70;99.90;;;;;;5071924;28;19919;-70
2023/01/01 05:45:42;;;;;;;;;;;10.70;99.90;;;;;;5070738;28;20441;-70
2023/01/01 05:48:10;;;;;;;;;;;10.80;99.90;;;;;;5072108;28;19912;-70
2023/01/01 05:50:35;;;;;;;;;;;11.00;99.90;;;;;;5072609;28;20340;-70
2023/01/01 05:53:01;;;;;;;;;;;11.00;99.90;;;;;;5062693;28;19949;-70
2023/01/01 05:55:27;;;;;;;;;;;11.10;99.90;;;;;;5058134;28;19928;-70
2023/01/01 05:57:53;;;;;;;;;;;11.00;99.90;;;;;;5057796;28;19951;-70
2023/01/01 06:00:19;;;;;;;;;;;11.00;99.90;;;;;;5074325;28;20454;-70
2023/01/01 06:02:44;;;;;;;;;;;10.90;99.90;;;;;;5073091;28;19913;-70
2023/01/01 06:05:10;;;;;;;;;;;10.90;99.90;;;;;;5064511;28;19919;-70
2023/01/01 06:07:39;;;;;;;;;;;10.80;99.90;;;;;;5054445;28;19913;-70
2023/01/01 06:10:05;;;;;;;;;;;10.80;99.90;;;;;;5072623;28;19916;-70
2023/01/01 06:12:30;;;;;;;;;;;10.80;99.90;;;;;;5074148;28;19920;-70
2023/01/01 06:14:56;;;;;;;;;;;10.80;99.90;;;;;;5072172;28;19924;-70
2023/01/01 06:17:22;;;;;;;;;;;10.80;99.90;;;;;;5072066;28;19971;-69
2023/01/01 06:19:48;;;;;;;;;;;10.80;99.90;;;;;;5053963;28;19916;-70
2023/01/01 06:22:15;;;;;;;;;;;10.70;99.90;;;;;;5073308;28;19913;-70
2023/01/01 06:24:40;;;;;;;;;;;10.70;99.90;;;;;;5074611;28;19940;-69
2023/01/01 06:27:06;;;;;;;;;;;10.70;99.90;;;;;;5054456;28;20343;-70
2023/01/01 06:29:33;;;;;;;;;;;10.70;99.90;;;;;;5071105;28;19912;-70
2023/01/01 06:31:58;;;;;;;;;;;10.80;99.90;;;;;;5069107;28;19943;-69
2023/01/01 06:34:25;;;;;;;;;;;10.70;99.90;;;;;;5073455;28;19912;-70
2023/01/01 06:36:52;;;;;;;;;;;10.70;99.90;;;;;;5073188;28;19959;-70
2023/01/01 06:39:17;;;;;;;;;;;10.70;99.90;;;;;;5072105;28;20425;-69
2023/01/01 06:41:44;;;;;;;;;;;10.70;99.90;;;;;;5054019;28;19916;-70
2023/01/01 06:44:10;;;;;;;;;;;10.70;99.90;;;;;;5072526;28;19913;-70
2023/01/01 06:46:36;;;;;;;;;;;10.80;99.90;;;;;;5072216;28;19912;-70
2023/01/01 06:49:04;;;;;;;;;;;10.70;99.90;;;;;;5075325;28;20260;-69
2023/01/01 06:51:31;;;;;;;;;;;10.70;99.90;;;;;;5078228;28;19974;-69
2023/01/01 06:53:57;;;;;;;;;;;10.70;99.90;;;;;;5060421;28;19974;-70
2023/01/01 06:56:23;;;;;;;;;;;10.70;99.90;;;;;;5077895;28;19932;-69
2023/01/01 06:58:49;;;;;;;;;;;10.70;99.90;;;;;;5075096;28;19919;-70
2023/01/01 07:01:20;;;;;;;;;;;10.70;99.90;;;;;;5057607;28;19912;-69
2023/01/01 07:03:52;;;;;;;;;;;10.60;99.90;;;;;;5056974;28;20106;-70
2023/01/01 07:06:19;;;;;;;;;;;10.70;99.90;;;;;;5075870;28;19942;-70
2023/01/01 07:08:45;;;;;;;;;;;10.80;99.90;;;;;;5057291;28;19965;-70
2023/01/01 07:11:11;;;;;;;;;;;10.80;99.90;;;;;;5075387;28;19912;-69
2023/01/01 07:13:38;;;;;;;;;;;10.80;99.90;;;;;;5076311;28;20007;-69
2023/01/01 07:16:05;;;;;;;;;;;10.80;99.90;;;;;;5057716;28;19921;-69
2023/01/01 07:18:31;;;;;;;;;;;10.80;99.90;;;;;;5074983;28;19966;-70
2023/01/01 07:20:58;;;;;;;;;;;10.80;99.90;;;;;;5075667;28;20275;-70
2023/01/01 07:23:24;;;;;;;;;;;10.90;99.90;;;;;;5057568;28;19913;-70
2023/01/01 07:25:51;;;;;;;;;;;10.70;99.90;;;;;;5075389;28;20017;-70
2023/01/01 07:28:17;;;;;;;;;;;10.70;99.90;;;;;;5075439;28;19912;-70
2023/01/01 07:30:42;;;;;;;;;;;10.80;99.90;;;;;;5075400;28;19938;-69
2023/01/01 07:33:12;;;;;;;;;;;10.60;99.90;;;;;;5074935;28;19920;-69
2023/01/01 07:35:39;;;;;;;;;;;10.70;99.90;;;;;;5076638;28;19917;-69
2023/01/01 07:38:05;;;;;;;;;;;10.70;99.90;;;;;;5075234;28;19922;-69
2023/01/01 07:40:31;;;;;;;;;;;10.90;99.90;;;;;;5074911;28;20283;-69
2023/01/01 07:42:57;;;;;;;;;;;10.90;99.90;;;;;;5057410;28;19912;-70
2023/01/01 07:45:24;;;;;;;;;;;11.00;99.90;;;;;;5056512;28;19913;-69
2023/01/01 07:47:56;;;;;;;;;;;11.00;99.90;;;;;;5074500;28;19970;-69
2023/01/01 07:50:24;;;;;;;;;;;11.00;99.90;;;;;;5074694;28;20058;-69
2023/01/01 07:52:50;;;;;;;;;;;11.00;99.90;;;;;;5076348;28;19916;-70
2023/01/01 07:55:18;;;;;;;;;;;10.90;99.90;;;;;;5074690;28;19912;-69
2023/01/01 07:57:44;;;;;;;;;;;11.00;99.90;;;;;;5057661;28;19951;-70
2023/01/01 08:00:11;;;;;;;;;;;11.10;99.90;;;;;;5074512;28;19952;-70
2023/01/01 08:02:37;;;;;;;;;;;11.10;99.90;;;;;;5074600;28;19923;-70
2023/01/01 08:05:03;;;;;;;;;;;11.10;99.90;;;;;;5074397;28;19912;-70
2023/01/01 08:07:29;;;;;;;;;;;11.20;99.90;;;;;;5075254;28;20642;-70
2023/01/01 08:09:54;;;;;;;;;;;11.20;99.90;;;;;;5075338;28;19913;-69
2023/01/01 08:12:20;;;;;;;;;;;11.20;99.90;;;;;;5074623;28;19913;-70
2023/01/01 08:14:46;;;;;;;;;;;11.30;99.90;;;;;;5057727;28;19923;-70
2023/01/01 08:17:13;;;;;;;;;;;11.40;99.90;;;;;;5075895;28;19920;-70
2023/01/01 08:19:39;;;;;;;;;;;11.50;99.90;;;;;;5075872;28;19978;-70
2023/01/01 08:22:04;;;;;;;;;;;11.50;99.90;;;;;;5074253;28;19948;-70
2023/01/01 08:24:30;;;;;;;;;;;11.50;99.90;;;;;;5074528;28;19998;-70
2023/01/01 08:26:56;;;;;;;;;;;11.30;99.90;;;;;;5075473;28;19912;-70
2023/01/01 08:29:22;;;;;;;;;;;11.40;99.90;;;;;;5073983;28;19919;-70
2023/01/01 08:31:48;;;;;;;;;;;11.30;99.90;;;;;;5073732;28;19912;-70
2023/01/01 08:34:14;;;;;;;;;;;11.50;99.90;;;;;;5074006;28;19913;-70
2023/01/01 08:36:39;;;;;;;;;;;11.60;99.90;;;;;;5056615;28;19928;-70
2023/01/01 08:39:06;;;;;;;;;;;11.70;99.90;;;;;;5057744;28;19912;-70
2023/01/01 08:41:32;;;;;;;;;;;11.90;99.90;;;;;;5057669;28;19943;-70
2023/01/01 08:43:57;;;;;;;;;;;11.90;99.90;;;;;;5076277;28;20351;-70
2023/01/01 08:46:23;;;;;;;;;;;11.90;99.90;;;;;;5074247;28;19912;-70
2023/01/01 08:48:50;;;;;;;;;;;12.10;99.90;;;;;;5056134;28;20335;-70
2023/01/01 08:51:16;;;;;;;;;;;12.20;99.90;;;;;;5056176;28;19912;-70
2023/01/01 08:53:42;;;;;;;;;;;12.20;99.90;;;;;;5055501;28;19912;-70
2023/01/01 08:56:09;;;;;;;;;;;12.30;99.90;;;;;;5073336;28;19920;-70
2023/01/01 08:58:35;;;;;;;;;;;12.40;99.90;;;;;;5056326;28;19913;-70
2023/01/01 09:01:03;;;;;;;;;;;12.50;99.90;;;;;;5074812;28;19913;-70
2023/01/01 09:03:28;;;;;;;;;;;12.40;99.90;;;;;;5057494;28;19952;-70
2023/01/01 09:05:54;;;;;;;;;;;12.70;99.90;;;;;;5055893;28;19943;-70
2023/01/01 09:08:20;;;;;;;;;;;12.80;99.90;;;;;;5073627;28;19916;-70
2023/01/01 09:10:47;;;;;;;;;;;12.90;99.90;;;;;;5055158;28;20318;-70
2023/01/01 09:13:14;;;;;;;;;;;12.90;99.90;;;;;;5039125;28;19998;-70
2023/01/01 09:15:43;;;;;;;;;;;12.80;99.90;;;;;;5073043;28;19923;-70
2023/01/01 09:18:09;;;;;;;;;;;12.80;99.90;;;;;;5072639;28;20430;-70
2023/01/01 09:20:35;;;;;;;;;;;12.90;99.90;;;;;;5073349;28;19913;-70
2023/01/01 09:23:01;;;;;;;;;;;13.10;99.90;;;;;;5055114;28;19913;-70
2023/01/01 09:25:27;;;;;;;;;;;13.20;99.90;;;;;;5073384;28;19916;-70
2023/01/01 09:28:00;;;;;;;;;;;13.30;99.90;;;;;;5055397;28;19919;-70
2023/01/01 09:30:25;;;;;;;;;;;13.70;99.90;;;;;;5055745;28;20026;-70
2023/01/01 09:32:51;;;;;;;;;;;;;;;;;;5072228;28;20392;-70
2023/01/01 09:35:17;;;;;;;;;;;14.00;99.90;;;;;;5072032;28;19958;-70
2023/01/01 09:37:43;;;;;;;;;;;14.10;99.90;;;;;;5072310;28;20447;-70
2023/01/01 09:40:30;;;;;;;;;;;14.30;99.90;;;;;;5072901;28;19995;-70
2023/01/01 09:43:13;;;;;;;;;;;14.10;99.90;;;;;;5062407;28;19912;-70
2023/01/01 09:45:49;;;;;;;;;;;14.00;99.90;;;;;;5054780;28;20348;-70
2023/01/01 09:48:15;;;;;;;;;;;14.10;99.90;;;;;;5072953;28;19912;-69
2023/01/01 09:50:42;;;;;;;;;;;14.10;99.90;;;;;;5054515;28;19920;-70
2023/01/01 09:53:25;;;;;;;;;;;14.50;99.90;;;;;;5072909;28;19913;-70
2023/01/01 09:55:58;;;;;;;;;;;14.50;99.90;;;;;;5070352;28;19920;-70
2023/01/01 09:58:27;;;;;;;;;;;14.60;99.90;;;;;;5038668;28;19913;-70
2023/01/01 10:00:54;;;;;;;;;;;14.70;99.90;;;;;;5018211;28;20482;-70
2023/01/01 10:03:32;;;;;;;;;;;15.00;99.90;;;;;;5066934;28;19924;-70
2023/01/01 10:06:03;;;;;;;;;;;15.10;99.90;;;;;;5073751;28;19916;-70
2023/01/01 10:08:48;;;;;;;;;;;15.00;99.90;;;;;;5072955;28;19913;-70
2023/01/01 10:11:31;;;;;;;;;;;15.20;99.90;;;;;;5073391;28;19912;-70
2023/01/01 10:13:59;;;;;;;;;;;15.40;99.90;;;;;;5074109;28;20374;-70
2023/01/01 10:16:45;;;;;;;;;;;15.50;99.90;;;;;;5072653;28;19921;-70
2023/01/01 10:19:31;;;;;;;;;;;15.50;99.90;;;;;;5071742;28;19922;-70
2023/01/01 10:22:00;;;;;;;;;;;15.70;99.90;;;;;;5071700;28;19922;-70
2023/01/01 10:24:28;;;;;;;;;;;15.80;99.90;;;;;;5072100;28;19912;-70
2023/01/01 10:26:55;;;;;;;;;;;15.70;99.90;;;;;;5072243;28;20433;-70
2023/01/01 10:29:23;;;;;;;;;;;15.90;99.90;;;;;;5072084;28;19920;-70
2023/01/01 10:31:53;;;;;;;;;;;15.80;99.90;;;;;;5071579;28;20344;-70
2023/01/01 10:34:31;;;;;;;;;;;16.00;99.90;;;;;;5054680;28;19912;-70
2023/01/01 10:36:58;;;;;;;;;;;16.10;99.90;;;;;;5069162;28;19940;-70
2023/01/01 10:39:25;;;;;;;;;;;15.90;99.90;;;;;;5071970;28;19919;-70
2023/01/01 10:41:51;;;;;;;;;;;15.80;99.90;;;;;;5053900;28;19921;-70
2023/01/01 10:44:26;;;;;;;;;;;16.00;99.90;;;;;;5054448;28;19944;-70
2023/01/01 10:46:55;;;;;;;;;;;16.20;99.90;;;;;;5072577;28;19952;-70
2023/01/01 10:49:21;;;;;;;;;;;15.90;99.90;;;;;;5072167;28;19916;-70
2023/01/01 10:51:48;;;;;;;;;;;15.90;99.90;;;;;;5062885;28;19913;-70
2023/01/01 10:54:32;;;;;;;;;;;15.90;99.90;;;;;;5071755;28;19965;-70
2023/01/01 10:57:00;;;;;;;;;;;16.00;99.90;;;;;;5073172;28;19964;-70
2023/01/01 10:59:36;;;;;;;;;;;16.10;99.90;;;;;;5071878;28;19931;-70
2023/01/01 11:02:17;;;;;;;;;;;15.90;99.90;;;;;;5064226;28;19912;-70
2023/01/01 11:04:43;;;;;;;;;;;15.80;99.90;;;;;;5070731;28;19991;-70
2023/01/01 11:07:16;;;;;;;;;;;15.90;99.90;;;;;;5071021;28;19958;-70
2023/01/01 11:09:46;;;;;;;;;;;16.00;99.90;;;;;;5070878;28;19921;-70
2023/01/01 11:12:17;;;;;;;;;;;16.10;99.90;;;;;;5071056;28;19951;-70
2023/01/01 11:14:47;;;;;;;;;;;15.90;99.90;;;;;;5072678;28;19917;-71
2023/01/01 11:17:19;;;;;;;;;;;16.00;99.90;;;;;;5074001;28;19920;-70
2023/01/01 11:19:47;;;;;;;;;;;16.20;99.90;;;;;;5057154;28;19919;-70
2023/01/01 11:22:33;;;;;;;;;;;16.20;99.90;;;;;;5072031;28;20274;-71
2023/01/01 11:24:59;;;;;;;;;;;16.20;99.90;;;;;;5071250;28;19912;-70
2023/01/01 11:27:28;;;;;;;;;;;16.20;99.90;;;;;;5070835;28;19995;-70
2023/01/01 11:30:13;;;;;;;;;;;16.10;99.90;;;;;;5038422;28;19916;-70
2023/01/01 11:32:39;;;;;;;;;;;16.10;99.90;;;;;;5041861;28;20314;-70
2023/01/01 11:35:07;;;;;;;;;;;16.40;99.90;;;;;;5054387;28;19916;-70
2023/01/01 11:37:36;;;;;;;;;;;16.20;99.90;;;;;;5057208;28;19978;-69
2023/01/01 11:40:04;;;;;;;;;;;16.30;99.90;;;;;;5068083;28;20367;-70
2023/01/01 11:42:31;;;;;;;;;;;16.60;99.90;;;;;;5072969;28;19972;-70
2023/01/01 11:45:05;;;;;;;;;;;16.40;99.90;;;;;;5069528;28;19928;-70
2023/01/01 11:47:34;;;;;;;;;;;16.30;99.90;;;;;;5056638;28;20019;-70
2023/01/01 11:50:04;;;;;;;;;;;16.40;99.90;;;;;;5072808;28;19917;-70
2023/01/01 11:52:35;;;;;;;;;;;16.40;99.90;;;;;;5056725;28;19913;-70
2023/01/01 11:55:12;;;;;;;;;;;16.30;99.90;;;;;;5057660;28;19943;-70
2023/01/01 11:57:44;;;;;;;;;;;16.30;99.90;;;;;;5072890;28;20451;-71
2023/01/01 12:00:13;;;;;;;;;;;16.20;99.90;;;;;;5074032;28;19970;-70
2023/01/01 12:02:43;;;;;;;;;;;16.20;99.90;;;;;;5062464;28;20006;-70
2023/01/01 12:05:15;;;;;;;;;;;16.20;99.90;;;;;;5074337;28;20344;-70
2023/01/01 12:07:42;;;;;;;;;;;16.30;99.90;;;;;;5064357;28;19919;-70
2023/01/01 12:10:19;;;;;;;;;;;16.50;99.90;;;;;;5073287;28;19913;-70
2023/01/01 12:12:49;;;;;;;;;;;16.30;99.90;;;;;;5063466;28;19919;-71
2023/01/01 12:15:34;;;;;;;;;;;16.50;99.90;;;;;;5056529;28;19999;-70
2023/01/01 12:18:22;;;;;;;;;;;16.50;99.90;;;;;;5073401;28;19932;-70
2023/01/01 12:21:00;;;;;;;;;;;16.40;99.90;;;;;;5062481;28;19977;-70
2023/01/01 12:23:28;;;;;;;;;;;16.40;99.90;;;;;;5074546;28;20240;-70
2023/01/01 12:26:16;;;;;;;;;;;16.30;99.90;;;;;;5080392;28;19913;-70
2023/01/01 12:29:00;;;;;;;;;;;16.20;99.90;;;;;;5061131;28;20233;-70
2023/01/01 12:31:33;;;;;;;;;;;16.10;99.90;;;;;;5054624;28;19913;-70
2023/01/01 12:34:04;;;;;;;;;;;16.10;99.90;;;;;;5063269;28;19912;-70
2023/01/01 12:36:57;;;;;;;;;;;16.10;99.90;;;;;;5066345;28;19925;-70
2023/01/01 12:39:41;;;;;;;;;;;16.00;99.90;;;;;;5073575;28;19995;-70
2023/01/01 12:42:13;;;;;;;;;;;16.00;99.90;;;;;;5072707;28;20272;-71
2023/01/01 12:44:45;;;;;;;;;;;16.10;99.90;;;;;;5077642;28;19912;-69
2023/01/01 12:47:23;;;;;;;;;;;16.10;99.90;;;;;;5075214;28;19912;-70
2023/01/01 12:49:55;;;;;;;;;;;16.10;99.90;;;;;;5072719;28;19919;-70
2023/01/01 12:52:39;;;;;;;;;;;16.00;99.90;;;;;;5073506;28;20363;-69
2023/01/01 12:55:25;;;;;;;;;;;16.00;99.90;;;;;;5072600;28;19939;-70
2023/01/01 12:57:59;;;;;;;;;;;16.00;99.90;;;;;;5066173;28;19924;-70
2023/01/01 13:00:25;;;;;;;;;;;16.00;99.90;;;;;;5058389;28;19912;-72
2023/01/01 13:02:59;;;;;;;;;;;15.90;99.90;;;;;;5058408;28;19921;-69
2023/01/01 13:05:31;;;;;;;;;;;15.90;99.90;;;;;;5064163;28;19939;-72
2023/01/01 13:07:59;;;;;;;;;;;15.90;99.90;;;;;;5072633;28;19923;-71
2023/01/01 13:10:24;;;;;;;;;;;15.80;99.90;;;;;;5069998;28;20356;-72
2023/01/01 13:12:51;;;;;;;;;;;15.80;99.90;;;;;;5071562;28;19912;-70
2023/01/01 13:15:35;;;;;;;;;;;15.70;99.90;;;;;;5055549;28;19921;-71
2023/01/01 13:18:05;;;;;;;;;;;15.70;99.90;;;;;;5073255;28;19923;-69
2023/01/01 13:20:39;;;;;;;;;;;15.70;99.90;;;;;;5073641;28;19912;-69
2023/01/01 13:23:27;;;;;;;;;;;15.70;99.90;;;;;;5072114;28;20451;-69
2023/01/01 13:26:11;;;;;;;;;;;15.60;99.90;;;;;;5071581;28;20401;-71
2023/01/01 13:28:37;;;;;;;;;;;15.60;99.90;;;;;;5054721;28;19913;-72
2023/01/01 13:31:06;;;;;;;;;;;15.50;99.90;;;;;;5054798;28;19992;-72
2023/01/01 13:33:33;;;;;;;;;;;15.60;99.90;;;;;;5073359;28;20059;-72
2023/01/01 13:36:10;;;;;;;;;;;15.50;99.90;;;;;;5073107;28;20006;-72
2023/01/01 13:38:53;;;;;;;;;;;15.50;99.90;;;;;;5073231;28;20669;-72
2023/01/01 13:41:37;;;;;;;;;;;15.60;99.90;;;;;;5073107;28;19919;-72
2023/01/01 13:44:02;;;;;;;;;;;15.40;99.90;;;;;;5054806;28;19912;-72
2023/01/01 13:46:31;;;;;;;;;;;15.30;99.90;;;;;;5055360;28;19920;-72
2023/01/01 13:49:05;;;;;;;;;;;15.30;99.90;;;;;;5072788;28;20352;-71
2023/01/01 13:51:49;;;;;;;;;;;15.30;99.90;;;;;;5073061;28;19940;-72
2023/01/01 13:54:18;;;;;;;;;;;15.20;99.90;;;;;;5072587;28;19913;-68
2023/01/01 13:56:49;;;;;;;;;;;15.10;99.90;;;;;;5053133;28;20322;-69
2023/01/01 13:59:32;;;;;;;;;;;15.10;99.90;;;;;;5071737;28;19924;-71
2023/01/01 14:02:21;;;;;;;;;;;15.10;99.90;;;;;;5073044;28;19913;-71
2023/01/01 14:04:55;;;;;;;;;;;15.10;99.90;;;;;;5060311;28;19959;-71
2023/01/01 14:07:28;;;;;;;;;;;15.00;99.90;;;;;;5071813;28;19912;-71
2023/01/01 14:10:07;;;;;;;;;;;15.00;99.90;;;;;;5071427;28;19912;-71
2023/01/01 14:12:36;;;;;;;;;;;14.90;99.90;;;;;;5053278;28;20365;-71
2023/01/01 14:15:13;;;;;;;;;;;14.90;99.90;;;;;;5053307;28;19916;-72
2023/01/01 14:17:41;;;;;;;;;;;14.80;99.90;;;;;;5071497;28;21582;-72
2023/01/01 14:20:08;;;;;;;;;;;14.70;99.90;;;;;;5072475;28;19927;-72
2023/01/01 14:22:35;;;;;;;;;;;14.60;99.90;;;;;;5071659;28;19912;-71
2023/01/01 14:25:00;;;;;;;;;;;14.50;99.90;;;;;;5071531;28;19917;-72
2023/01/01 14:27:28;;;;;;;;;;;14.40;99.90;;;;;;5072278;28;20535;-72
2023/01/01 14:29:55;;;;;;;;;;;14.30;99.90;;;;;;5073493;28;19919;-72
2023/01/01 14:32:22;;;;;;;;;;;14.20;99.90;;;;;;5055684;28;19955;-72
2023/01/01 14:34:59;;;;;;;;;;;14.20;99.90;;;;;;5073247;28;20355;-72
2023/01/01 14:37:25;;;;;;;;;;;14.10;99.90;;;;;;5071467;28;19925;-72